Terminal Aerodrome Forecast
Issued by NWS Wakefield, VA

Home | Current Version | Previous Version | Text Only | Print | Product List | Glossary On
Versions: 1 2 3 4 5 6 7 8 9 10 11 12 13 14 15 16 17 18 19 20 21
000
FTUS41 KAKQ 051140
TAFSBY
TAF
KSBY 051140Z 0512/0612 05003KT 5SM BR SCT004 SCT015
      TEMPO 0512/0513 3SM BR OVC010
     FM051400 06004KT 6SM BR BKN020
     FM051600 10006KT P6SM BKN050
     FM060000 09003KT 6SM BR OVC100
     FM060900 10003KT 4SM -RA BR OVC050=

USA.gov is the U.S. government's official web portal to all federal, state and local government web resources and services.